Latest Weather Observations for Rockhampton

IDQ60801

Issued at 2:12 pm EST Saturday 29 February 2020 (issued every 10 minutes, with the page automatically refreshed every 10 minutes)

About weather observations | Map of weather stations | Latest weather observations for QLD | Other Formats
Station Details ID: 039083 Name: ROCKHAMPTON AERO Lat: -23.38 Lon: 150.48 Height: 10.4 m
Data from the previous 72 hours. | See also: Recent months at Rockhampton
Date/Time
EST
Temp
°C
App
Temp
°C
Dew
Point
°C
Rel
Hum
%
Delta-T
°C
Wind Press
QNH
hPa
Press
MSL
hPa
Rain since
9am
mm
Dir  Spd
km/h
Gust
km/h
Spd
kts
Gust
kts
29/02:00pm 32.0 33.5 21.2 52 7.3 ESE 15 24 8 13 1009.8 1009.7 0.0
29/01:30pm 31.7 32.5 20.6 51 7.4 E 17 26 9 14 1010.1 1010.0 0.0
29/01:00pm 31.1 31.9 20.7 54 6.9 ESE 17 24 9 13 1010.6 1010.5 0.0
29/12:30pm 31.6 33.3 21.7 55 6.7 E 15 28 8 15 1011.0 1010.9 0.0
29/12:00pm 31.0 31.8 20.6 54 6.9 E 17 26 9 14 1011.5 1011.4 0.0
29/11:30am 30.2 31.3 21.3 59 6.0 ESE 17 26 9 14 1011.8 1011.7 0.0
29/11:00am 30.3 31.9 22.2 62 5.5 SE 17 28 9 15 1012.2 1012.1 0.0
29/10:30am 29.7 31.4 21.6 61 5.4 ESE 15 22 8 12 1012.3 1012.2 0.0
29/10:00am 29.0 30.7 21.7 64 4.9 E 15 22 8 12 1012.5 1012.4 0.0
29/09:30am 28.5 30.5 21.5 66 4.7 E 13 20 7 11 1012.5 1012.4 0.0
29/09:00am 27.9 29.7 21.2 67 4.5 ESE 13 19 7 10 1012.3 1012.2 0.2
29/08:30am 26.7 28.5 21.9 75 3.2 SE 15 20 8 11 1012.0 1011.9 0.2
29/08:00am 26.8 28.8 22.2 76 3.1 SE 15 20 8 11 1011.7 1011.6 0.2
29/07:30am 26.0 27.8 21.9 78 2.7 ESE 15 26 8 14 1011.4 1011.3 0.2
29/07:00am 25.5 27.9 22.2 82 2.2 ESE 13 20 7 11 1011.1 1011.0 0.2
29/06:30am 25.0 27.3 22.1 84 1.9 ESE 13 19 7 10 1010.6 1010.5 0.2
29/06:00am 24.7 27.1 22.2 86 1.7 ESE 13 19 7 10 1010.3 1010.2 0.2
29/05:30am 24.7 27.1 22.2 86 1.7 ESE 13 17 7 9 1010.0 1009.9 0.2
29/05:00am 24.5 27.2 22.2 87 1.5 ESE 11 17 6 9 1009.5 1009.4 0.2
29/04:30am 24.5 27.6 22.2 87 1.5 ESE 9 13 5 7 1009.3 1009.2 0.2
29/04:00am 24.6 27.9 22.5 88 1.4 SE 9 13 5 7 1009.1 1009.0 0.2
29/03:30am 24.8 28.2 22.7 88 1.4 SE 9 13 5 7 1009.0 1008.9 0.2
29/03:00am 25.0 28.8 22.7 87 1.6 SE 7 11 4 6 1008.8 1008.7 0.2
29/02:30am 25.3 28.3 22.6 85 1.8 SE 11 17 6 9 1008.8 1008.7 0.2
29/02:00am 25.1 28.9 22.8 87 1.6 ESE 7 9 4 5 1008.8 1008.7 0.2
29/01:30am 25.3 29.2 23.0 87 1.6 ESE 7 9 4 5 1009.1 1009.0 0.2
29/01:00am 25.5 28.7 23.0 86 1.7 ESE 11 13 6 7 1009.5 1009.4 0.2
29/12:30am 25.8 29.2 22.7 83 2.1 ESE 9 13 5 7 1009.6 1009.5 0.2
29/12:00am 26.3 29.6 22.6 80 2.5 ESE 9 13 5 7 1009.5 1009.4 0.2
 
Date/Time
EST
Temp
°C
App
Temp
°C
Dew
Point
°C
Rel
Hum
%
Delta-T
°C
Wind Press
QNH
hPa
Press
MSL
hPa
Rain since
9am
mm
Dir  Spd
km/h
Gust
km/h
Spd
kts
Gust
kts
28/11:30pm 26.4 30.3 22.9 81 2.4 SSE 7 11 4 6 1009.5 1009.4 0.2
28/11:00pm 26.2 29.9 22.5 80 2.5 ESE 7 11 4 6 1009.5 1009.4 0.2
28/10:30pm 26.6 29.8 22.4 78 2.8 SE 9 13 5 7 1009.5 1009.4 0.2
28/10:00pm 26.7 30.0 22.5 78 2.8 ESE 9 13 5 7 1009.6 1009.5 0.2
28/09:30pm 27.1 31.0 22.5 76 3.1 SE 6 9 3 5 1009.6 1009.5 0.2
28/09:00pm 27.6 30.9 22.5 74 3.5 ESE 9 13 5 7 1009.7 1009.6 0.2
28/08:30pm 27.9 31.5 22.4 72 3.7 ESE 7 13 4 7 1008.9 1008.8 0.2
28/08:00pm 27.8 31.4 22.1 71 3.8 E 6 9 3 5 1008.2 1008.1 0.2
28/07:30pm 27.8 30.2 22.3 72 3.7 E 13 22 7 12 1007.7 1007.6 0.2
28/07:00pm 28.3 30.3 21.6 67 4.5 SE 13 19 7 10 1007.2 1007.1 0.2
28/06:30pm 28.6 31.6 20.9 63 5.1 E 6 11 3 6 1006.6 1006.5 0.2
28/06:00pm 29.5 31.7 20.4 58 6.0 ESE 9 13 5 7 1006.6 1006.5 0.2
28/05:30pm 30.2 31.9 20.2 55 6.6 E 11 19 6 10 1006.4 1006.3 0.2
28/05:00pm 30.1 33.1 23.3 67 4.7 NNE 13 17 7 9 1005.9 1005.8 0.2
28/04:30pm 31.6 33.6 22.9 60 6.0 E 17 24 9 13 1005.2 1005.1 0.2
28/04:00pm 32.3 33.9 21.5 53 7.3 E 15 22 8 12 1004.5 1004.4 0.2
28/03:30pm 32.8 34.5 22.3 54 7.2 E 17 26 9 14 1005.1 1005.0 0.2
28/03:00pm 33.1 35.5 21.6 51 7.8 E 11 20 6 11 1004.8 1004.7 0.2
28/02:30pm 33.4 35.9 22.5 52 7.5 E 13 20 7 11 1005.2 1005.1 0.2
28/02:00pm 33.3 35.8 22.4 52 7.5 ESE 13 20 7 11 1005.4 1005.3 0.2
28/01:30pm 32.8 34.5 21.0 50 7.9 SE 13 24 7 13 1005.7 1005.6 0.2
28/01:00pm 32.6 34.6 20.8 49 7.9 E 11 20 6 11 1006.0 1005.9 0.2
28/12:30pm 32.6 35.7 21.5 52 7.5 E 7 15 4 8 1006.4 1006.3 0.2
28/12:00pm 32.1 35.3 21.6 53 7.1 SSE 7 15 4 8 1006.9 1006.8 0.2
28/11:30am 31.6 34.5 21.7 55 6.7 SSE 9 15 5 8 1007.2 1007.1 0.2
28/11:00am 31.1 34.1 22.7 61 5.8 SE 11 15 6 8 1007.6 1007.5 0.2
28/10:30am 30.3 32.6 21.4 59 6.0 SSE 11 17 6 9 1007.6 1007.5 0.2
28/10:00am 29.9 32.1 20.5 57 6.2 SSE 9 13 5 7 1007.6 1007.5 0.2
28/09:30am 28.9 31.3 20.9 62 5.3 ESE 9 13 5 7 1007.6 1007.5 0.2
28/09:00am 28.4 31.6 21.7 67 4.5 SE 7 11 4 6 1007.8 1007.7 17.0
28/08:30am 26.9 29.1 20.5 68 4.2 SSE 9 13 5 7 1007.9 1007.8 17.0
28/08:00am 26.6 29.1 21.1 72 3.6 ESE 9 13 5 7 1007.7 1007.6 17.0
28/07:30am 25.9 27.4 20.5 72 3.5 SE 13 17 7 9 1007.4 1007.3 17.0
28/07:00am 25.1 27.2 20.1 74 3.3 SE 9 13 5 7 1007.4 1007.3 17.0
28/06:30am 24.2 27.0 20.9 82 2.2 SSW 7 9 4 5 1007.0 1006.9 17.0
28/06:00am 23.9 26.7 20.4 81 2.3 SE 6 9 3 5 1006.8 1006.7 17.0
28/05:30am 23.9 28.1 21.0 84 1.9 CALM 0 0 0 0 1006.5 1006.4 17.0
28/05:00am 24.2 27.4 21.3 84 1.9 ESE 6 9 3 5 1006.1 1006.0 17.0
28/04:30am 23.8 26.9 21.1 85 1.8 NNE 6 15 3 8 1005.8 1005.7 17.0
28/04:00am 24.4 28.9 21.5 84 1.9 CALM 0 0 0 0 1006.3 1006.2 17.0
28/03:30am 24.5 27.2 21.4 83 2.0 S 9 13 5 7 1006.7 1006.6 17.0
28/03:00am 24.4 27.3 21.1 82 2.2 SSE 7 11 4 6 1006.6 1006.5 17.0
28/02:30am 24.4 27.9 21.1 82 2.2 SSE 4 7 2 4 1006.5 1006.4 17.0
28/02:00am 24.6 27.4 20.9 80 2.4 NNE 7 9 4 5 1006.4 1006.3 17.0
28/01:30am 24.9 26.5 20.8 78 2.7 ESE 13 20 7 11 1006.8 1006.7 17.0
28/01:00am 25.3 26.4 21.2 78 2.7 ESE 17 26 9 14 1007.0 1006.9 17.0
28/12:46am 25.7 26.6 21.6 78 2.7 ESE 19 26 10 14 1007.2 1007.1 17.0
28/12:30am 26.4 28.6 23.3 83 2.1 ESE 17 26 9 14 1007.5 1007.4 17.0
28/12:00am 26.4 30.5 24.6 90 1.3 ESE 11 17 6 9 1007.7 1007.6 17.0
 
Date/Time
EST
Temp
°C
App
Temp
°C
Dew
Point
°C
Rel
Hum
%
Delta-T
°C
Wind Press
QNH
hPa
Press
MSL
hPa
Rain since
9am
mm
Dir  Spd
km/h
Gust
km/h
Spd
kts
Gust
kts
27/11:30pm 26.6 31.7 25.0 91 1.1 SE 7 9 4 5 1007.3 1007.2 17.0
27/11:00pm 26.3 32.6 24.7 91 1.1 CALM 0 6 0 3 1006.8 1006.7 17.0
27/10:30pm 26.7 31.8 24.7 89 1.4 W 6 7 3 4 1007.2 1007.1 17.0
27/10:00pm 27.0 32.6 24.8 88 1.5 SSE 4 9 2 5 1007.8 1007.7 17.0
27/09:30pm 26.8 32.6 24.6 88 1.5 ENE 2 9 1 5 1007.6 1007.5 17.0
27/09:00pm 26.6 33.1 25.0 91 1.1 CALM 0 0 0 0 1007.0 1006.9 17.0
27/08:30pm 26.8 32.2 25.2 91 1.1 NW 6 9 3 5 1006.6 1006.5 17.0
27/08:00pm 26.9 33.2 24.7 88 1.5 CALM 0 0 0 0 1006.4 1006.3 17.0
27/07:30pm 27.0 32.0 24.8 88 1.5 NW 7 9 4 5 1005.9 1005.8 17.0
27/07:00pm 27.2 32.1 24.7 86 1.7 NNW 7 9 4 5 1005.5 1005.4 17.0
27/06:30pm 27.5 32.0 23.9 81 2.5 NW 7 9 4 5 1005.1 1005.0 17.0
27/06:00pm 28.2 32.3 22.9 73 3.6 NNW 6 13 3 7 1004.8 1004.7 17.0
27/05:30pm 28.5 31.6 24.1 77 3.0 N 15 17 8 9 1004.7 1004.6 17.0
27/05:00pm 28.3 31.6 24.5 80 2.7 NNE 15 20 8 11 1004.2 1004.1 17.0
27/04:30pm 27.4 30.3 23.8 81 2.5 N 15 19 8 10 1004.3 1004.2 17.0
27/04:00pm 25.7 27.2 23.0 85 1.8 N 20 32 11 17 1004.2 1004.1 17.0
27/03:43pm 29.2 33.2 25.0 78 2.9 NNE 13 20 7 11 1004.3 1004.2 2.6
27/03:30pm 30.5 34.1 25.6 75 3.5 NNE 17 20 9 11 1003.9 1003.8 0.4
27/03:00pm 31.2 34.7 24.8 69 4.5 NNE 15 20 8 11 1004.2 1004.1 0.2
27/02:30pm 32.3 36.3 25.6 67 4.8 NNE 15 20 8 11 1004.6 1004.5 0.2
27/02:00pm 33.5 37.9 23.5 55 7.0 NE 6 11 3 6 1004.8 1004.7 0.2
27/01:30pm 32.9 37.1 23.5 57 6.5 SSW 7 13 4 7 1005.3 1005.2 0.2
27/01:00pm 32.5 35.9 23.4 58 6.3 SSE 11 20 6 11 1005.8 1005.7 0.2
27/12:30pm 32.2 36.1 22.9 58 6.4 W 7 13 4 7 1006.4 1006.3 0.2
27/12:00pm 32.1 36.2 22.2 56 6.8 WNW 4 9 2 5 1006.8 1006.7 0.2
27/11:30am 31.4 34.9 22.1 57 6.3 NW 7 11 4 6 1007.2 1007.1 0.2
27/11:00am 31.6 36.0 23.4 61 5.7 SW 6 15 3 8 1007.7 1007.6 0.2
27/10:30am 30.9 34.9 22.8 62 5.5 SSE 6 13 3 7 1008.1 1008.0 0.2
27/10:00am 30.8 35.2 23.5 65 5.0 SSW 6 11 3 6 1008.5 1008.4 0.2
27/09:30am 29.4 33.4 22.1 65 4.9 WNW 4 11 2 6 1008.4 1008.3 0.0
27/09:00am 29.1 32.6 22.8 69 4.3 N 9 13 5 7 1008.3 1008.2 0.4
27/08:30am 28.2 32.6 24.4 80 2.6 NNW 9 13 5 7 1008.2 1008.1 0.4
27/08:00am 27.5 32.3 24.4 83 2.2 N 7 11 4 6 1008.2 1008.1 0.4
27/07:30am 26.6 32.0 23.9 85 1.9 W 2 7 1 4 1007.9 1007.8 0.4
27/07:00am 25.8 30.8 23.8 89 1.4 WNW 4 7 2 4 1007.4 1007.3 0.4
27/06:30am 25.2 29.7 23.6 91 1.1 NNE 6 7 3 4 1007.3 1007.2 0.4
27/06:12am 25.0 30.4 23.8 93 0.8 SSE 2 6 1 3 1007.3 1007.2 0.4
27/06:00am 25.0 29.5 23.6 92 1.0 SSE 6 9 3 5 1007.4 1007.3 0.4
27/05:30am 25.1 29.2 23.9 93 0.8 SSW 9 11 5 6 1007.3 1007.2 0.4
27/05:00am 25.0 29.4 23.8 93 0.8 SSE 7 11 4 6 1007.0 1006.9 0.4
27/04:30am 24.9 28.6 23.9 94 0.7 ESE 11 15 6 8 1006.8 1006.7 0.4
27/04:00am 25.6 31.1 24.6 94 0.7 E 4 7 2 4 1006.7 1006.6 0.4
27/03:41am 25.4 31.1 24.4 94 0.7 SSW 2 6 1 3 1006.7 1006.6 0.4
27/03:30am 25.6 30.7 24.6 94 0.7 WSW 6 11 3 6 1006.7 1006.6 0.4
27/03:00am 25.2 29.1 24.3 95 0.6 NNW 11 15 6 8 1006.0 1005.9 0.4
27/02:30am 25.4 30.2 24.4 94 0.7 WNW 7 13 4 7 1007.0 1006.9 0.4
27/02:00am 25.5 29.3 24.1 92 1.0 SW 11 13 6 7 1007.7 1007.6 0.0
27/01:30am 25.7 30.2 23.9 90 1.2 SSW 7 11 4 6 1008.0 1007.9 0.0
27/01:00am 26.4 31.6 24.2 88 1.5 ESE 4 7 2 4 1008.3 1008.2 0.0
27/12:30am 26.5 32.1 24.3 88 1.5 S 2 6 1 3 1008.4 1008.3 0.0
27/12:00am 26.8 32.3 24.1 85 1.9 E 2 7 1 4 1008.7 1008.6 0.0
 
Date/Time
EST
Temp
°C
App
Temp
°C
Dew
Point
°C
Rel
Hum
%
Delta-T
°C
Wind Press
QNH
hPa
Press
MSL
hPa
Rain since
9am
mm
Dir  Spd
km/h
Gust
km/h
Spd
kts
Gust
kts
26/11:30pm 27.6 32.8 23.6 79 2.7 E 2 7 1 4 1009.4 1009.3 0.0
26/11:00pm 27.4 32.0 23.8 81 2.5 SE 6 9 3 5 1009.5 1009.4 0.0
26/10:30pm 27.4 31.3 23.6 80 2.6 NE 9 13 5 7 1009.0 1008.9 0.0
26/10:00pm 27.2 31.4 24.1 83 2.1 N 9 13 5 7 1009.2 1009.1 0.0
26/09:30pm 27.3 31.8 24.0 82 2.3 NNE 7 9 4 5 1009.2 1009.1 0.0
26/09:00pm 27.6 31.9 23.6 79 2.7 N 7 11 4 6 1009.4 1009.3 0.0
26/08:30pm 28.0 31.4 23.4 76 3.2 N 11 13 6 7 1008.9 1008.8 0.0
26/08:00pm 27.9 31.5 23.7 78 2.9 NNE 11 17 6 9 1008.2 1008.1 0.0
26/07:30pm 27.9 31.2 23.9 79 2.8 NNE 13 19 7 10 1007.6 1007.5 0.0
26/07:00pm 28.4 31.4 23.3 74 3.5 NNE 13 19 7 10 1008.0 1007.9 0.0
26/06:30pm 28.7 30.8 23.1 71 3.8 N 17 24 9 13 1007.4 1007.3 0.0
26/06:00pm 29.5 31.9 23.7 71 4.0 N 17 20 9 11 1006.9 1006.8 0.0
26/05:30pm 30.6 33.1 23.8 67 4.7 NNE 17 22 9 12 1006.3 1006.2 0.0
26/05:00pm 31.6 34.8 23.7 63 5.5 NE 13 17 7 9 1005.6 1005.5 0.0
26/04:30pm 31.5 34.8 23.9 64 5.3 E 13 19 7 10 1005.6 1005.5 0.0
26/04:00pm 31.7 35.4 23.2 60 5.9 E 9 13 5 7 1005.7 1005.6 0.0
26/03:30pm 32.3 37.0 24.3 62 5.6 NE 7 15 4 8 1006.1 1006.0 0.0
26/03:00pm 32.0 35.2 23.0 59 6.2 E 11 19 6 10 1006.3 1006.2 0.0
26/02:30pm 31.4 34.6 22.4 59 6.1 E 9 13 5 7 1006.8 1006.7 0.0

Other formats

Comma delimited format used in spreadsheet applications
http://www.bom.gov.au/fwo/IDQ60801/IDQ60801.94374.axf

JavaScript Object Notation format (JSON) in row-major order
http://www.bom.gov.au/fwo/IDQ60801/IDQ60801.94374.json

Data quality

Most of these data are generated automatically and are frequently updated. Quality checks on data are not normally performed. It is possible for incorrect values to appear. Refer to information at About Latest Weather Observations and please check the disclaimer before using these data.